createdAt,value
2019-03-06T00:04:49.427Z,0.30
2019-03-06T00:09:54.716Z,3.50
2019-03-06T00:15:00.391Z,3.40
2019-03-06T00:20:05.901Z,3.40
2019-03-06T00:25:11.417Z,3.40
2019-03-06T00:30:16.900Z,3.40
2019-03-06T00:35:25.639Z,3.40
2019-03-06T00:40:39.411Z,3.50
2019-03-06T00:45:44.814Z,3.50
2019-03-06T00:50:50.105Z,3.40
2019-03-06T00:55:55.398Z,3.50
2019-03-06T01:01:00.720Z,3.60
2019-03-06T01:06:06.086Z,3.60
2019-03-06T01:11:11.396Z,3.70
2019-03-06T01:16:16.682Z,3.50
2019-03-06T01:21:22.027Z,3.50
2019-03-06T01:26:27.370Z,3.40
2019-03-06T01:31:32.648Z,3.20
2019-03-06T01:37:03.114Z,3.10
2019-03-06T01:42:27.380Z,3.10
2019-03-06T01:47:32.834Z,3.00
2019-03-06T01:52:38.686Z,2.90
2019-03-06T01:57:43.975Z,2.90
2019-03-06T02:02:49.482Z,2.80
2019-03-06T02:07:54.759Z,2.80
2019-03-06T02:13:00.056Z,2.80
2019-03-06T02:18:05.935Z,2.80
2019-03-06T02:23:11.387Z,2.80
2019-03-06T02:28:16.710Z,2.90
2019-03-06T02:33:22.026Z,3.00
2019-03-06T02:38:27.506Z,3.10
2019-03-06T02:43:32.924Z,3.10
2019-03-06T02:48:38.275Z,3.20
2019-03-06T02:53:43.578Z,3.20
2019-03-06T02:59:23.406Z,3.30
2019-03-06T03:04:34.284Z,3.30
2019-03-06T03:09:39.911Z,3.30
2019-03-06T03:14:47.432Z,3.40
2019-03-06T03:19:53.831Z,3.50
2019-03-06T03:24:59.533Z,3.50
2019-03-06T03:30:06.578Z,3.50
2019-03-06T03:35:12.078Z,3.60
2019-03-06T03:40:18.032Z,3.60
2019-03-06T03:45:23.344Z,3.50
2019-03-06T03:50:29.317Z,3.60
2019-03-06T03:55:35.191Z,3.60
2019-03-06T04:00:40.877Z,3.60
2019-03-06T04:05:46.164Z,3.70
2019-03-06T04:10:51.785Z,3.70
2019-03-06T04:15:57.747Z,3.70
2019-03-06T04:21:03.126Z,3.80
2019-03-06T04:26:10.007Z,3.80
2019-03-06T04:31:15.320Z,3.90
2019-03-06T04:36:20.617Z,3.90
2019-03-06T04:41:26.473Z,3.90
2019-03-06T04:46:32.151Z,3.90
2019-03-06T04:51:37.463Z,3.90
2019-03-06T04:56:43.134Z,3.90
2019-03-06T05:01:48.484Z,3.90
2019-03-06T05:06:54.207Z,3.90
2019-03-06T05:12:00.114Z,3.90
2019-03-06T05:17:33.395Z,3.80
2019-03-06T05:22:38.704Z,3.80
2019-03-06T05:27:44.584Z,3.70
2019-03-06T05:32:49.943Z,3.70
2019-03-06T05:38:04.645Z,3.70
2019-03-06T05:43:11.025Z,3.60
2019-03-06T05:48:16.363Z,3.60
2019-03-06T05:53:22.354Z,3.50
2019-03-06T05:58:27.732Z,3.50
2019-03-06T06:03:33.031Z,3.40
2019-03-06T06:08:39.708Z,3.40
2019-03-06T06:13:45.092Z,3.40
2019-03-06T06:18:50.594Z,3.40
2019-03-06T06:24:02.122Z,3.40
2019-03-06T06:29:07.627Z,3.40
2019-03-06T06:34:13.141Z,3.40
2019-03-06T06:39:18.559Z,3.50
2019-03-06T06:44:23.927Z,3.50
2019-03-06T06:49:29.229Z,3.50
2019-03-06T06:55:06.343Z,3.50
2019-03-06T07:01:01.310Z,3.50
2019-03-06T07:06:31.911Z,3.60
2019-03-06T07:11:47.933Z,3.60
2019-03-06T07:17:07.364Z,3.70
2019-03-06T07:22:34.808Z,3.70
2019-03-06T07:27:59.031Z,3.80
2019-03-06T07:33:24.625Z,4.00
2019-03-06T07:38:31.245Z,4.20
2019-03-06T07:43:48.731Z,4.30
2019-03-06T07:49:19.400Z,4.40
2019-03-06T07:54:49.323Z,4.40
2019-03-06T07:59:54.844Z,4.50
2019-03-06T08:05:00.356Z,4.60
2019-03-06T08:10:12.404Z,4.60
2019-03-06T08:15:35.260Z,4.60
2019-03-06T08:21:11.591Z,4.80
2019-03-06T08:26:16.915Z,4.80
2019-03-06T08:31:39.422Z,4.90
2019-03-06T08:36:44.651Z,4.90
2019-03-06T08:41:49.971Z,4.80
2019-03-06T08:47:14.215Z,4.80
2019-03-06T08:52:38.471Z,4.70
2019-03-06T08:58:11.832Z,4.70
2019-03-06T09:03:39.561Z,4.90
2019-03-06T09:09:02.680Z,5.10
2019-03-06T09:14:27.228Z,5.50
2019-03-06T09:19:53.165Z,5.70
2019-03-06T09:25:04.172Z,5.70
2019-03-06T09:30:39.775Z,5.80
2019-03-06T09:36:05.805Z,5.80
2019-03-06T09:41:29.493Z,5.90
2019-03-06T09:46:56.774Z,6.20
2019-03-06T09:52:11.853Z,6.70
2019-03-06T09:57:50.701Z,7.40
2019-03-06T10:03:21.151Z,7.40
2019-03-06T10:08:44.431Z,7.60
2019-03-06T10:14:21.037Z,8.40
2019-03-06T10:19:33.584Z,9.00
2019-03-06T10:24:38.888Z,9.40
2019-03-06T10:29:44.180Z,9.90
2019-03-06T10:34:49.455Z,9.70
2019-03-06T10:39:54.765Z,10.10
2019-03-06T10:45:03.099Z,10.80
2019-03-06T10:50:10.991Z,11.70
2019-03-06T10:55:16.933Z,11.60
2019-03-06T11:00:26.371Z,11.40
2019-03-06T11:05:33.687Z,11.60
2019-03-06T11:10:39.068Z,12.10
2019-03-06T11:15:45.223Z,12.40
2019-03-06T11:20:50.699Z,12.50
2019-03-06T11:25:56.283Z,12.40
2019-03-06T11:31:02.955Z,12.20
2019-03-06T11:36:08.470Z,12.00
2019-03-06T11:41:14.269Z,12.40
2019-03-06T11:46:20.368Z,13.00
2019-03-06T11:51:26.199Z,12.80
2019-03-06T11:56:32.462Z,13.00
2019-03-06T12:01:47.543Z,13.50
2019-03-06T12:06:45.573Z,13.90
2019-03-06T12:11:51.654Z,13.40
2019-03-06T12:16:56.976Z,13.40
2019-03-06T12:22:02.643Z,13.30
2019-03-06T12:27:08.199Z,12.90
2019-03-06T12:32:13.724Z,13.20
2019-03-06T12:37:19.320Z,13.00
2019-03-06T12:42:24.698Z,12.90
2019-03-06T12:47:30.206Z,13.10
2019-03-06T12:52:35.595Z,13.10
2019-03-06T12:57:41.463Z,13.00
2019-03-06T13:02:47.113Z,12.70
2019-03-06T13:07:52.647Z,12.80
2019-03-06T13:12:58.512Z,12.50
2019-03-06T13:18:04.268Z,12.50
2019-03-06T13:23:09.663Z,12.50
2019-03-06T13:28:14.967Z,12.50
2019-03-06T13:33:34.979Z,12.70
2019-03-06T13:38:40.284Z,12.50
2019-03-06T13:43:45.630Z,12.40
2019-03-06T13:48:51.028Z,12.50
2019-03-06T13:53:56.704Z,12.50
2019-03-06T13:59:02.035Z,12.60
2019-03-06T14:04:07.362Z,12.80
2019-03-06T14:09:12.594Z,12.60
2019-03-06T14:14:18.139Z,12.60
2019-03-06T14:19:23.488Z,12.60
2019-03-06T14:24:29.881Z,12.50
2019-03-06T14:29:36.283Z,12.50
2019-03-06T14:34:41.662Z,12.40
2019-03-06T14:39:47.176Z,12.30
2019-03-06T14:44:52.622Z,12.20
2019-03-06T14:49:57.987Z,12.20
2019-03-06T14:55:04.425Z,12.20
2019-03-06T15:00:12.625Z,12.30
2019-03-06T15:05:18.856Z,12.50
2019-03-06T15:10:24.368Z,12.70
2019-03-06T15:15:29.858Z,12.90
2019-03-06T15:20:37.279Z,13.00
2019-03-06T15:25:42.272Z,13.30
2019-03-06T15:30:47.729Z,13.40
2019-03-06T15:35:53.255Z,13.30
2019-03-06T15:40:58.982Z,13.00
2019-03-06T15:46:04.484Z,12.70
2019-03-06T15:51:09.878Z,12.50
2019-03-06T15:56:15.373Z,12.20
2019-03-06T16:01:22.225Z,12.10
2019-03-06T16:06:27.747Z,12.00
2019-03-06T16:11:35.286Z,11.80
2019-03-06T16:16:40.692Z,11.60
2019-03-06T16:21:46.407Z,11.40
2019-03-06T16:26:51.803Z,11.30
2019-03-06T16:31:57.123Z,11.10
2019-03-06T16:37:02.420Z,11.00
2019-03-06T16:42:07.970Z,10.90
2019-03-06T16:47:13.312Z,9.90
2019-03-06T16:52:19.224Z,10.50
2019-03-06T16:57:24.510Z,10.30
2019-03-06T17:02:30.195Z,10.20
2019-03-06T17:07:35.532Z,10.10
2019-03-06T17:12:41.151Z,10.00
2019-03-06T17:17:46.710Z,9.90
2019-03-06T17:22:52.183Z,9.70
2019-03-06T17:27:58.198Z,9.50
2019-03-06T17:33:07.387Z,9.40
2019-03-06T17:38:13.142Z,9.20
2019-03-06T17:43:18.898Z,9.10
2019-03-06T17:48:24.504Z,9.00
2019-03-06T17:53:30.689Z,8.90
2019-03-06T17:58:37.049Z,8.90
2019-03-06T18:03:49.886Z,8.80
2019-03-06T18:08:56.047Z,8.80
2019-03-06T18:14:02.118Z,8.80
2019-03-06T18:19:09.582Z,8.80
2019-03-06T18:24:15.509Z,8.80
2019-03-06T18:29:21.461Z,8.80
2019-03-06T18:34:28.024Z,8.70
2019-03-06T18:39:34.189Z,8.70
2019-03-06T18:44:40.773Z,8.60
2019-03-06T18:49:46.688Z,8.50
2019-03-06T18:54:52.297Z,8.40
2019-03-06T18:59:57.941Z,8.40
2019-03-06T19:05:03.297Z,8.20
2019-03-06T19:10:10.024Z,8.10
2019-03-06T19:15:18.317Z,8.10
2019-03-06T19:20:24.753Z,8.10
2019-03-06T19:25:31.344Z,8.00
2019-03-06T19:30:36.882Z,7.80
2019-03-06T19:35:42.170Z,7.70
2019-03-06T19:40:47.679Z,7.60
2019-03-06T19:45:52.968Z,7.50
2019-03-06T19:50:58.359Z,7.50
2019-03-06T19:56:03.690Z,7.50
2019-03-06T20:01:08.999Z,7.50
2019-03-06T20:06:14.407Z,7.40
2019-03-06T20:11:19.743Z,7.30
2019-03-06T20:16:25.276Z,7.20
2019-03-06T20:21:30.568Z,7.10
2019-03-06T20:26:37.944Z,7.00
2019-03-06T20:31:43.280Z,7.00
2019-03-06T20:36:49.675Z,6.90
2019-03-06T20:41:55.056Z,6.80
2019-03-06T20:47:00.542Z,6.70
2019-03-06T20:52:06.549Z,6.60
2019-03-06T20:57:12.943Z,6.50
2019-03-06T21:02:18.445Z,6.50
2019-03-06T21:07:23.824Z,6.40
2019-03-06T21:12:29.140Z,6.30
2019-03-06T21:17:34.795Z,6.20
2019-03-06T21:22:40.509Z,6.20
2019-03-06T21:27:45.826Z,6.20
2019-03-06T21:32:51.178Z,6.20
2019-03-06T21:37:56.467Z,6.10
2019-03-06T21:43:01.901Z,6.10
2019-03-06T21:48:07.335Z,6.00
2019-03-06T21:53:12.685Z,6.00
2019-03-06T21:58:18.301Z,5.90
2019-03-06T22:03:24.779Z,5.80
2019-03-06T22:08:30.327Z,5.70
2019-03-06T22:13:36.125Z,5.60
2019-03-06T22:18:41.419Z,5.50
2019-03-06T22:23:47.103Z,5.50
2019-03-06T22:28:52.507Z,5.40
2019-03-06T22:33:57.822Z,5.30
2019-03-06T22:39:03.158Z,5.20
2019-03-06T22:44:10.079Z,5.20
2019-03-06T22:49:15.380Z,5.20
2019-03-06T22:54:20.893Z,5.20
2019-03-06T22:59:26.179Z,5.20
2019-03-06T23:04:31.759Z,5.20
2019-03-06T23:09:37.062Z,5.20
2019-03-06T23:14:42.379Z,5.20
2019-03-06T23:19:47.672Z,5.30
2019-03-06T23:24:52.973Z,5.20
2019-03-06T23:29:58.319Z,5.30
2019-03-06T23:35:03.613Z,5.30
2019-03-06T23:40:08.955Z,5.30
2019-03-06T23:45:14.473Z,5.30
2019-03-06T23:50:19.962Z,5.40
2019-03-06T23:55:25.848Z,5.40
